createdAt,value
2018-09-09T00:00:20.403Z,96.37
2018-09-09T00:01:20.427Z,96.32
2018-09-09T00:02:20.449Z,96.61
2018-09-09T00:03:20.470Z,96.70
2018-09-09T00:04:20.494Z,96.51
2018-09-09T00:05:20.510Z,96.89
2018-09-09T00:06:20.532Z,96.66
2018-09-09T00:07:20.553Z,97.09
2018-09-09T00:08:20.575Z,97.42
2018-09-09T00:09:20.598Z,96.94
2018-09-09T00:10:20.617Z,97.90
2018-09-09T00:11:20.638Z,97.61
2018-09-09T00:12:20.660Z,97.61
2018-09-09T00:13:20.683Z,97.61
2018-09-09T00:14:20.706Z,97.04
2018-09-09T00:15:20.725Z,97.61
2018-09-09T00:16:20.749Z,97.80
2018-09-09T00:17:20.770Z,98.28
2018-09-09T00:18:20.789Z,97.61
2018-09-09T00:19:20.814Z,97.42
2018-09-09T00:20:20.833Z,97.61
2018-09-09T00:21:20.854Z,97.71
2018-09-09T00:22:20.882Z,97.80
2018-09-09T00:23:20.896Z,98.10
2018-09-09T00:24:20.916Z,98.28
2018-09-09T00:25:20.938Z,97.61
2018-09-09T00:26:20.959Z,96.94
2018-09-09T00:27:20.980Z,97.23
2018-09-09T00:28:21.002Z,97.33
2018-09-09T00:29:21.023Z,98.19
2018-09-09T00:30:21.046Z,98.47
2018-09-09T00:31:21.065Z,98.10
2018-09-09T00:32:21.090Z,98.28
2018-09-09T00:33:21.132Z,98.19
2018-09-09T00:34:21.129Z,98.19
2018-09-09T00:35:21.151Z,98.76
2018-09-09T00:36:21.172Z,99.05
2018-09-09T00:37:21.193Z,98.47
2018-09-09T00:38:21.217Z,98.19
2018-09-09T00:39:21.238Z,98.86
2018-09-09T00:40:21.256Z,98.86
2018-09-09T00:41:21.277Z,98.96
2018-09-09T00:42:21.299Z,99.24
2018-09-09T00:43:21.322Z,99.72
2018-09-09T00:44:21.376Z,99.91
2018-09-09T00:45:21.366Z,99.72
2018-09-09T00:46:21.386Z,99.72
2018-09-09T00:47:21.408Z,99.82
2018-09-09T00:48:21.428Z,99.91
2018-09-09T00:49:21.447Z,99.99
2018-09-09T00:50:21.471Z,99.99
2018-09-09T00:51:21.489Z,99.99
2018-09-09T00:52:21.517Z,99.99
2018-09-09T00:53:21.539Z,99.99
2018-09-09T00:54:21.556Z,99.99
2018-09-09T00:55:21.574Z,99.99
2018-09-09T00:56:21.599Z,99.99
2018-09-09T00:57:21.616Z,99.99
2018-09-09T00:58:21.638Z,99.99
2018-09-09T00:59:21.662Z,99.99
2018-09-09T01:00:22.016Z,99.99
2018-09-09T01:01:21.700Z,99.99
2018-09-09T01:02:21.725Z,99.99
2018-09-09T01:03:21.743Z,99.99
2018-09-09T01:04:21.765Z,99.99
2018-09-09T01:05:21.787Z,99.99
2018-09-09T01:06:21.806Z,99.99
2018-09-09T01:07:21.828Z,99.99
2018-09-09T01:08:21.851Z,99.99
2018-09-09T01:09:21.872Z,99.99
2018-09-09T01:10:21.892Z,99.99
2018-09-09T01:11:21.911Z,99.99
2018-09-09T01:12:21.937Z,99.99
2018-09-09T01:13:21.955Z,99.99
2018-09-09T01:14:21.977Z,99.99
2018-09-09T01:15:21.995Z,99.99
2018-09-09T01:16:22.020Z,99.99
2018-09-09T01:17:22.040Z,99.99
2018-09-09T01:18:22.062Z,99.99
2018-09-09T01:19:22.083Z,99.99
2018-09-09T01:20:22.104Z,99.99
2018-09-09T01:21:22.124Z,99.99
2018-09-09T01:22:22.143Z,99.99
2018-09-09T01:23:22.166Z,99.99
2018-09-09T01:24:22.187Z,99.99
2018-09-09T01:25:22.206Z,99.99
2018-09-09T01:26:22.228Z,99.99
2018-09-09T01:27:22.249Z,99.99
2018-09-09T01:28:22.272Z,99.99
2018-09-09T01:29:22.289Z,99.99
2018-09-09T01:30:22.313Z,99.99
2018-09-09T01:31:22.337Z,99.99
2018-09-09T01:32:22.375Z,99.99
2018-09-09T01:33:22.373Z,99.99
2018-09-09T01:34:22.398Z,99.99
2018-09-09T01:35:22.418Z,99.99
2018-09-09T01:36:22.439Z,99.99
2018-09-09T01:37:22.458Z,99.99
2018-09-09T01:38:22.481Z,99.99
2018-09-09T01:39:22.501Z,99.99
2018-09-09T01:40:22.521Z,99.99
2018-09-09T01:41:22.542Z,99.99
2018-09-09T01:42:22.565Z,99.99
2018-09-09T01:43:22.587Z,99.99
2018-09-09T01:44:22.605Z,99.99
2018-09-09T01:45:22.626Z,99.99
2018-09-09T01:46:22.655Z,99.99
2018-09-09T01:47:22.672Z,99.99
2018-09-09T01:48:22.691Z,99.99
2018-09-09T01:49:22.715Z,99.99
2018-09-09T01:50:22.732Z,99.99
2018-09-09T01:51:22.755Z,99.99
2018-09-09T01:52:22.778Z,99.99
2018-09-09T01:53:22.795Z,99.99
2018-09-09T01:54:22.817Z,99.99
2018-09-09T01:55:22.838Z,99.99
2018-09-09T01:56:22.861Z,99.99
2018-09-09T01:57:22.879Z,99.99
2018-09-09T01:58:22.901Z,99.99
2018-09-09T01:59:22.919Z,99.99
2018-09-09T02:00:22.943Z,99.99
2018-09-09T02:01:23.114Z,99.99
2018-09-09T02:02:22.988Z,99.99
2018-09-09T02:03:23.005Z,99.99
2018-09-09T02:04:23.026Z,99.99
2018-09-09T02:05:23.047Z,99.99
2018-09-09T02:06:23.065Z,99.99
2018-09-09T02:07:23.090Z,99.99
2018-09-09T02:08:23.110Z,99.99
2018-09-09T02:09:23.131Z,99.99
2018-09-09T02:10:23.149Z,99.99
2018-09-09T02:11:23.172Z,99.99
2018-09-09T02:12:23.192Z,99.99
2018-09-09T02:13:23.213Z,99.99
2018-09-09T02:14:23.238Z,99.99
2018-09-09T02:15:23.256Z,99.99
2018-09-09T02:16:23.279Z,99.99
2018-09-09T02:17:23.295Z,99.99
2018-09-09T02:18:23.344Z,99.99
2018-09-09T02:19:23.337Z,99.99
2018-09-09T02:20:23.361Z,99.99
2018-09-09T02:21:23.379Z,99.99
2018-09-09T02:22:23.401Z,99.99
2018-09-09T02:23:23.423Z,99.99
2018-09-09T02:24:23.442Z,99.99
2018-09-09T02:25:23.462Z,99.99
2018-09-09T02:26:23.485Z,99.99
2018-09-09T02:27:23.511Z,99.99
2018-09-09T02:28:23.529Z,99.99
2018-09-09T02:29:23.545Z,99.99
2018-09-09T02:30:23.571Z,99.99
2018-09-09T02:31:23.589Z,99.99
2018-09-09T02:32:23.608Z,99.99
2018-09-09T02:33:23.631Z,99.99
2018-09-09T02:34:23.654Z,99.99
2018-09-09T02:35:23.674Z,99.99
2018-09-09T02:36:23.694Z,99.99
2018-09-09T02:37:23.715Z,99.99
2018-09-09T02:38:23.733Z,99.99
2018-09-09T02:39:23.756Z,99.99
2018-09-09T02:40:23.777Z,99.99
2018-09-09T02:41:23.796Z,99.99
2018-09-09T02:42:23.817Z,99.99
2018-09-09T02:43:23.841Z,99.99
2018-09-09T02:44:23.862Z,99.99
2018-09-09T02:45:23.879Z,99.99
2018-09-09T02:46:23.909Z,99.99
2018-09-09T02:47:23.925Z,99.99
2018-09-09T02:48:23.945Z,99.99
2018-09-09T02:49:23.965Z,99.99
2018-09-09T02:50:23.986Z,99.99
2018-09-09T02:51:24.005Z,99.99
2018-09-09T02:52:24.032Z,99.99
2018-09-09T02:53:24.050Z,99.99
2018-09-09T02:54:24.067Z,99.99
2018-09-09T02:55:24.090Z,99.99
2018-09-09T02:56:24.112Z,99.99
2018-09-09T02:57:24.133Z,99.99
2018-09-09T02:58:24.151Z,99.99
2018-09-09T02:59:24.173Z,99.99
2018-09-09T03:00:24.195Z,99.99
2018-09-09T03:01:24.212Z,99.99
2018-09-09T03:02:24.237Z,99.99
2018-09-09T03:03:24.256Z,99.99
2018-09-09T03:04:24.279Z,99.99
2018-09-09T03:05:24.295Z,99.99
2018-09-09T03:06:24.317Z,99.99
2018-09-09T03:07:24.337Z,99.99
2018-09-09T03:08:24.358Z,99.99
2018-09-09T03:09:24.381Z,99.99
2018-09-09T03:10:24.399Z,99.99
2018-09-09T03:11:24.435Z,99.99
2018-09-09T03:12:24.443Z,99.99
2018-09-09T03:13:24.464Z,99.99
2018-09-09T03:14:24.482Z,99.99
2018-09-09T03:15:24.503Z,99.99
2018-09-09T03:16:24.533Z,99.99
2018-09-09T03:17:24.544Z,99.99
2018-09-09T03:18:24.565Z,99.99
2018-09-09T03:19:24.598Z,99.99
2018-09-09T03:20:24.608Z,99.99
2018-09-09T03:21:24.631Z,99.99
2018-09-09T03:22:24.651Z,99.99
2018-09-09T03:23:24.669Z,99.99
2018-09-09T03:24:24.691Z,99.99
2018-09-09T03:25:24.711Z,99.99
2018-09-09T03:26:24.734Z,99.99
2018-09-09T03:27:24.755Z,99.99
2018-09-09T03:28:24.829Z,99.99
2018-09-09T03:29:24.801Z,99.99
2018-09-09T03:30:24.819Z,99.99
2018-09-09T03:31:24.840Z,99.99
2018-09-09T03:32:24.862Z,99.99
2018-09-09T03:33:24.878Z,99.99
2018-09-09T03:34:24.902Z,99.99
2018-09-09T03:35:24.926Z,99.99
2018-09-09T03:36:24.945Z,99.99
2018-09-09T03:37:24.964Z,99.99
2018-09-09T03:38:24.986Z,99.99
2018-09-09T03:39:25.013Z,99.99
2018-09-09T03:40:25.026Z,99.99
2018-09-09T03:41:25.049Z,99.99
2018-09-09T03:42:25.078Z,99.99
2018-09-09T03:43:25.092Z,99.99
2018-09-09T03:44:25.110Z,99.99
2018-09-09T03:45:25.130Z,99.99
2018-09-09T03:46:25.152Z,99.99
2018-09-09T03:47:25.179Z,99.99
2018-09-09T03:48:25.195Z,99.99
2018-09-09T03:49:25.215Z,99.99
2018-09-09T03:50:25.237Z,99.99
2018-09-09T03:51:25.256Z,99.99
2018-09-09T03:52:25.278Z,99.99
2018-09-09T03:53:25.298Z,99.99
2018-09-09T03:54:25.322Z,99.99
2018-09-09T03:55:25.343Z,99.99
2018-09-09T03:56:25.361Z,99.99
2018-09-09T03:57:25.409Z,99.99
2018-09-09T03:58:25.402Z,99.99
2018-09-09T03:59:25.429Z,99.99
2018-09-09T04:00:25.445Z,99.99
2018-09-09T04:01:25.468Z,99.99
2018-09-09T04:02:25.489Z,99.99
2018-09-09T04:03:25.506Z,99.99
2018-09-09T04:04:25.532Z,99.99
2018-09-09T04:05:25.551Z,99.99
2018-09-09T04:06:25.569Z,99.99
2018-09-09T04:07:25.593Z,99.99
2018-09-09T04:08:25.614Z,99.99
2018-09-09T04:09:25.634Z,99.99
2018-09-09T04:10:25.653Z,99.99
2018-09-09T04:11:25.676Z,99.99
2018-09-09T04:12:25.698Z,99.99
2018-09-09T04:13:25.718Z,99.99
2018-09-09T04:14:25.756Z,99.99
2018-09-09T04:15:25.762Z,99.99
2018-09-09T04:16:25.782Z,99.99
2018-09-09T04:17:25.802Z,99.99
2018-09-09T04:18:25.820Z,99.99
2018-09-09T04:19:25.844Z,99.99
2018-09-09T04:20:25.863Z,99.99
2018-09-09T04:21:25.889Z,99.99
2018-09-09T04:22:25.904Z,99.99
2018-09-09T04:23:25.928Z,99.99
2018-09-09T04:24:25.949Z,99.99
2018-09-09T04:25:25.966Z,99.99
2018-09-09T04:26:25.990Z,99.99
2018-09-09T04:27:26.008Z,99.99
2018-09-09T04:28:26.034Z,99.99
2018-09-09T04:29:26.053Z,99.99
2018-09-09T04:30:26.072Z,99.99
2018-09-09T04:31:26.093Z,99.99
2018-09-09T04:32:26.113Z,99.99
2018-09-09T04:33:26.134Z,99.99
2018-09-09T04:34:26.157Z,99.99
2018-09-09T04:35:26.180Z,99.99
2018-09-09T04:36:26.200Z,99.99
2018-09-09T04:37:26.218Z,99.99
2018-09-09T04:38:26.242Z,99.99
2018-09-09T04:39:26.263Z,99.99
2018-09-09T04:40:26.281Z,99.99
2018-09-09T04:41:26.302Z,99.99
2018-09-09T04:42:26.323Z,99.99
2018-09-09T04:43:26.345Z,99.99
2018-09-09T04:44:26.365Z,99.99
2018-09-09T04:45:26.386Z,99.99
2018-09-09T04:46:26.489Z,99.99
2018-09-09T04:47:26.428Z,99.99
2018-09-09T04:48:26.452Z,99.99
2018-09-09T04:49:26.474Z,99.99
2018-09-09T04:50:26.490Z,99.99
2018-09-09T04:51:26.512Z,99.99
2018-09-09T04:52:26.537Z,99.99
2018-09-09T04:53:26.556Z,99.99
2018-09-09T04:54:26.575Z,99.99
2018-09-09T04:55:26.598Z,99.99
2018-09-09T04:56:26.620Z,99.99
2018-09-09T04:57:26.637Z,99.99
2018-09-09T04:58:26.659Z,99.99
2018-09-09T04:59:26.683Z,99.99
2018-09-09T05:00:26.701Z,99.99
2018-09-09T05:01:26.768Z,99.99
2018-09-09T05:02:26.743Z,99.99
2018-09-09T05:03:26.764Z,99.99
2018-09-09T05:04:26.791Z,99.99
2018-09-09T05:05:26.806Z,99.99
2018-09-09T05:06:26.830Z,99.99
2018-09-09T05:07:26.851Z,99.99
2018-09-09T05:08:26.869Z,99.99
2018-09-09T05:09:26.888Z,99.99
2018-09-09T05:10:26.911Z,99.99
2018-09-09T05:11:26.931Z,99.99
2018-09-09T05:12:26.956Z,99.99
2018-09-09T05:13:26.978Z,99.99
2018-09-09T05:14:26.995Z,99.99
2018-09-09T05:15:27.015Z,99.99
2018-09-09T05:16:27.037Z,99.99
2018-09-09T05:17:27.059Z,99.99
2018-09-09T05:18:27.080Z,99.99
2018-09-09T05:19:27.105Z,99.99
2018-09-09T05:20:27.122Z,99.99
2018-09-09T05:21:27.140Z,99.99
2018-09-09T05:22:27.161Z,99.99
2018-09-09T05:23:27.183Z,99.99
2018-09-09T05:24:27.207Z,99.99
2018-09-09T05:25:27.224Z,99.99
2018-09-09T05:26:27.267Z,99.99
2018-09-09T05:27:27.267Z,99.99
2018-09-09T05:28:27.287Z,99.99
2018-09-09T05:29:27.309Z,99.99
2018-09-09T05:30:27.332Z,99.99
2018-09-09T05:31:27.352Z,99.99
2018-09-09T05:32:27.374Z,99.99
2018-09-09T05:33:27.395Z,99.99
2018-09-09T05:34:27.415Z,99.99
2018-09-09T05:35:27.434Z,99.99
2018-09-09T05:36:27.458Z,99.99
2018-09-09T05:37:27.483Z,99.99
2018-09-09T05:38:27.500Z,99.99
2018-09-09T05:39:27.518Z,99.99
2018-09-09T05:40:27.540Z,99.99
2018-09-09T05:41:27.563Z,99.99
2018-09-09T05:42:27.651Z,99.99
2018-09-09T05:43:27.605Z,99.99
2018-09-09T05:44:27.624Z,99.99
2018-09-09T05:45:27.647Z,99.99
2018-09-09T05:46:27.669Z,99.99
2018-09-09T05:47:27.687Z,99.91
2018-09-09T05:48:27.712Z,99.99
2018-09-09T05:49:27.732Z,99.91
2018-09-09T05:50:27.750Z,99.91
2018-09-09T05:51:27.773Z,99.53
2018-09-09T05:52:27.798Z,99.72
2018-09-09T05:53:27.816Z,99.63
2018-09-09T05:54:27.839Z,99.53
2018-09-09T05:55:27.858Z,99.53
2018-09-09T05:56:27.879Z,99.53
2018-09-09T05:57:27.940Z,99.72
2018-09-09T05:58:27.920Z,99.53
2018-09-09T05:59:27.941Z,98.96
2018-09-09T06:00:27.965Z,99.43
2018-09-09T06:01:27.983Z,99.05
2018-09-09T06:02:28.008Z,99.05
2018-09-09T06:03:28.027Z,99.15
2018-09-09T06:04:28.049Z,98.96
2018-09-09T06:05:28.069Z,99.15
2018-09-09T06:06:28.096Z,98.67
2018-09-09T06:07:28.123Z,98.57
2018-09-09T06:08:28.133Z,99.05
2018-09-09T06:09:28.154Z,99.34
2018-09-09T06:10:28.178Z,99.05
2018-09-09T06:11:28.199Z,99.05
2018-09-09T06:12:28.220Z,99.05
2018-09-09T06:13:28.240Z,98.86
2018-09-09T06:14:28.263Z,99.24
2018-09-09T06:15:28.282Z,98.67
2018-09-09T06:16:28.307Z,98.38
2018-09-09T06:17:28.324Z,98.33
2018-09-09T06:18:28.348Z,97.52
2018-09-09T06:19:28.398Z,97.80
2018-09-09T06:20:28.390Z,98.00
2018-09-09T06:21:28.413Z,97.85
2018-09-09T06:22:28.432Z,97.95
2018-09-09T06:23:28.454Z,97.85
2018-09-09T06:24:28.477Z,97.95
2018-09-09T06:25:28.499Z,97.38
2018-09-09T06:26:28.520Z,97.18
2018-09-09T06:27:28.566Z,96.99
2018-09-09T06:28:28.564Z,96.99
2018-09-09T06:29:28.581Z,97.09
2018-09-09T06:30:28.605Z,97.09
2018-09-09T06:31:28.677Z,97.28
2018-09-09T06:32:28.650Z,96.80
2018-09-09T06:33:28.672Z,96.99
2018-09-09T06:34:28.691Z,97.28
2018-09-09T06:35:28.712Z,97.09
2018-09-09T06:36:28.735Z,97.09
2018-09-09T06:37:28.754Z,97.09
2018-09-09T06:38:28.777Z,96.99
2018-09-09T06:39:28.798Z,96.89
2018-09-09T06:40:28.820Z,96.51
2018-09-09T06:41:28.842Z,96.70
2018-09-09T06:42:28.865Z,96.51
2018-09-09T06:43:28.888Z,96.42
2018-09-09T06:44:28.909Z,96.42
2018-09-09T06:45:28.934Z,96.89
2018-09-09T06:46:28.983Z,96.51
2018-09-09T06:47:28.974Z,96.42
2018-09-09T06:48:28.994Z,96.03
2018-09-09T06:49:29.021Z,96.18
2018-09-09T06:50:29.037Z,96.18
2018-09-09T06:51:29.059Z,95.70
2018-09-09T06:52:29.084Z,95.89
2018-09-09T06:53:29.105Z,95.79
2018-09-09T06:54:29.124Z,95.51
2018-09-09T06:55:29.270Z,95.70
2018-09-09T06:56:29.174Z,95.21
2018-09-09T06:57:29.195Z,94.64
2018-09-09T06:58:29.211Z,94.59
2018-09-09T06:59:29.237Z,94.26
2018-09-09T07:00:29.259Z,94.79
2018-09-09T07:01:29.278Z,93.63
2018-09-09T07:02:29.371Z,93.35
2018-09-09T07:03:29.321Z,93.25
2018-09-09T07:04:29.346Z,92.96
2018-09-09T07:05:29.366Z,92.24
2018-09-09T07:06:29.389Z,91.76
2018-09-09T07:07:29.414Z,91.86
2018-09-09T07:08:29.433Z,91.57
2018-09-09T07:09:29.455Z,91.38
2018-09-09T07:10:29.479Z,91.28
2018-09-09T07:11:29.642Z,90.80
2018-09-09T07:12:29.521Z,90.52
2018-09-09T07:13:29.543Z,90.75
2018-09-09T07:14:29.567Z,89.75
2018-09-09T07:15:29.592Z,89.50
2018-09-09T07:16:29.613Z,89.07
2018-09-09T07:17:29.637Z,89.02
2018-09-09T07:18:29.654Z,88.64
2018-09-09T07:19:29.678Z,88.83
2018-09-09T07:20:29.703Z,88.25
2018-09-09T07:21:29.724Z,87.68
2018-09-09T07:22:29.747Z,88.16
2018-09-09T07:23:29.768Z,88.16
2018-09-09T07:24:29.791Z,88.06
2018-09-09T07:25:29.816Z,87.49
2018-09-09T07:26:29.836Z,87.62
2018-09-09T07:27:29.860Z,87.53
2018-09-09T07:28:29.911Z,87.05
2018-09-09T07:29:29.904Z,86.57
2018-09-09T07:30:29.929Z,86.38
2018-09-09T07:31:29.950Z,85.99
2018-09-09T07:32:29.973Z,86.18
2018-09-09T07:33:29.996Z,86.38
2018-09-09T07:34:30.019Z,85.89
2018-09-09T07:35:30.044Z,85.71
2018-09-09T07:36:30.067Z,85.61
2018-09-09T07:37:30.089Z,85.51
2018-09-09T07:38:30.111Z,85.41
2018-09-09T07:39:30.137Z,85.71
2018-09-09T07:40:30.160Z,85.80
2018-09-09T07:41:30.181Z,85.22
2018-09-09T07:42:30.209Z,85.13
2018-09-09T07:43:30.228Z,85.22
2018-09-09T07:44:30.253Z,84.84
2018-09-09T07:45:30.273Z,85.80
2018-09-09T07:46:30.376Z,84.84
2018-09-09T07:47:30.321Z,84.64
2018-09-09T07:48:30.343Z,84.17
2018-09-09T07:49:30.364Z,84.45
2018-09-09T07:50:30.447Z,84.26
2018-09-09T07:51:30.412Z,84.26
2018-09-09T07:52:30.439Z,84.07
2018-09-09T07:53:30.459Z,84.36
2018-09-09T07:54:30.484Z,84.64
2018-09-09T07:55:30.505Z,84.55
2018-09-09T07:56:30.529Z,84.74
2018-09-09T07:57:30.553Z,84.94
2018-09-09T07:58:30.580Z,85.51
2018-09-09T07:59:30.598Z,85.32
2018-09-09T08:00:30.663Z,85.99
2018-09-09T08:01:30.644Z,85.99
2018-09-09T08:02:30.669Z,86.38
2018-09-09T08:03:30.697Z,85.89
2018-09-09T08:04:30.719Z,86.76
2018-09-09T08:05:30.740Z,87.10
2018-09-09T08:06:30.760Z,87.49
2018-09-09T08:07:30.785Z,87.19
2018-09-09T08:08:30.810Z,86.72
2018-09-09T08:09:30.832Z,87.29
2018-09-09T08:10:30.852Z,87.58
2018-09-09T08:11:30.876Z,87.24
2018-09-09T08:12:30.903Z,87.05
2018-09-09T08:13:30.924Z,87.34
2018-09-09T08:14:30.944Z,86.85
2018-09-09T08:15:30.972Z,86.95
2018-09-09T08:16:30.994Z,86.28
2018-09-09T08:17:31.014Z,86.28
2018-09-09T08:18:31.061Z,86.28
2018-09-09T08:19:31.061Z,86.57
2018-09-09T08:20:31.086Z,86.47
2018-09-09T08:21:31.109Z,86.22
2018-09-09T08:22:31.132Z,85.27
2018-09-09T08:23:31.178Z,85.27
2018-09-09T08:24:31.179Z,83.63
2018-09-09T08:25:31.199Z,83.15
2018-09-09T08:26:31.225Z,82.57
2018-09-09T08:27:31.245Z,82.19
2018-09-09T08:28:31.273Z,81.90
2018-09-09T08:29:31.293Z,81.99
2018-09-09T08:30:31.317Z,81.42
2018-09-09T08:31:31.351Z,81.99
2018-09-09T08:32:31.364Z,81.56
2018-09-09T08:33:31.415Z,81.65
2018-09-09T08:34:31.411Z,81.32
2018-09-09T08:35:31.433Z,81.65
2018-09-09T08:36:31.459Z,81.75
2018-09-09T08:37:31.483Z,81.46
2018-09-09T08:38:31.504Z,80.55
2018-09-09T08:39:31.526Z,80.55
2018-09-09T08:40:31.550Z,80.50
2018-09-09T08:41:31.573Z,80.40
2018-09-09T08:42:31.601Z,80.30
2018-09-09T08:43:31.628Z,80.21
2018-09-09T08:44:31.646Z,79.73
2018-09-09T08:45:31.728Z,80.50
2018-09-09T08:46:31.694Z,80.69
2018-09-09T08:47:31.718Z,79.44
2018-09-09T08:48:31.740Z,79.05
2018-09-09T08:49:31.765Z,78.96
2018-09-09T08:50:31.786Z,79.44
2018-09-09T08:51:31.812Z,78.58
2018-09-09T08:52:31.837Z,78.58
2018-09-09T08:53:31.859Z,79.25
2018-09-09T08:54:31.881Z,78.00
2018-09-09T08:55:31.909Z,78.77
2018-09-09T08:56:31.930Z,78.67
2018-09-09T08:57:31.963Z,79.05
2018-09-09T08:58:31.976Z,78.86
2018-09-09T08:59:32.000Z,78.58
2018-09-09T09:00:32.029Z,77.71
2018-09-09T09:01:32.050Z,77.23
2018-09-09T09:02:32.081Z,76.78
2018-09-09T09:03:32.096Z,77.36
2018-09-09T09:04:32.120Z,77.36
2018-09-09T09:05:32.145Z,76.78
2018-09-09T09:06:32.169Z,75.92
2018-09-09T09:07:32.244Z,76.69
2018-09-09T09:08:32.218Z,76.31
2018-09-09T09:09:32.243Z,76.50
2018-09-09T09:10:32.263Z,76.31
2018-09-09T09:11:32.289Z,76.78
2018-09-09T09:12:32.315Z,76.31
2018-09-09T09:13:32.337Z,76.50
2018-09-09T09:14:32.368Z,75.92
2018-09-09T09:15:32.383Z,76.01
2018-09-09T09:16:32.407Z,76.31
2018-09-09T09:17:32.433Z,76.11
2018-09-09T09:18:32.513Z,75.82
2018-09-09T09:19:32.483Z,75.92
2018-09-09T09:20:32.539Z,75.96
2018-09-09T09:21:32.533Z,74.99
2018-09-09T09:22:32.554Z,74.80
2018-09-09T09:23:32.641Z,74.03
2018-09-09T09:24:32.600Z,73.94
2018-09-09T09:25:32.626Z,74.03
2018-09-09T09:26:32.650Z,74.90
2018-09-09T09:27:32.672Z,74.41
2018-09-09T09:28:32.697Z,74.80
2018-09-09T09:29:32.721Z,74.90
2018-09-09T09:30:32.784Z,74.80
2018-09-09T09:31:32.774Z,74.71
2018-09-09T09:32:32.793Z,74.13
2018-09-09T09:33:32.819Z,72.97
2018-09-09T09:34:32.841Z,73.55
2018-09-09T09:35:32.866Z,72.78
2018-09-09T09:36:32.893Z,73.26
2018-09-09T09:37:32.917Z,72.78
2018-09-09T09:38:32.940Z,72.88
2018-09-09T09:39:32.992Z,72.68
2018-09-09T09:40:32.987Z,72.53
2018-09-09T09:41:33.010Z,71.91
2018-09-09T09:42:33.038Z,72.59
2018-09-09T09:43:33.059Z,72.30
2018-09-09T09:44:33.087Z,71.66
2018-09-09T09:45:33.109Z,71.04
2018-09-09T09:46:33.135Z,71.34
2018-09-09T09:47:33.159Z,70.89
2018-09-09T09:48:33.181Z,71.95
2018-09-09T09:49:33.208Z,71.37
2018-09-09T09:50:33.233Z,71.18
2018-09-09T09:51:33.254Z,70.89
2018-09-09T09:52:33.278Z,70.41
2018-09-09T09:53:33.365Z,70.89
2018-09-09T09:54:33.328Z,70.79
2018-09-09T09:55:33.384Z,71.24
2018-09-09T09:56:33.376Z,71.81
2018-09-09T09:57:33.399Z,71.72
2018-09-09T09:58:33.423Z,72.24
2018-09-09T09:59:33.449Z,72.05
2018-09-09T10:00:33.475Z,71.28
2018-09-09T10:01:33.497Z,70.98
2018-09-09T10:02:33.525Z,70.79
2018-09-09T10:03:33.626Z,70.41
2018-09-09T10:04:33.576Z,70.60
2018-09-09T10:05:33.597Z,70.31
2018-09-09T10:06:33.622Z,70.50
2018-09-09T10:07:33.644Z,69.93
2018-09-09T10:08:33.669Z,70.21
2018-09-09T10:09:33.694Z,70.60
2018-09-09T10:10:33.718Z,70.98
2018-09-09T10:11:33.743Z,70.79
2018-09-09T10:12:33.767Z,70.60
2018-09-09T10:13:33.798Z,70.02
2018-09-09T10:14:33.816Z,70.60
2018-09-09T10:15:33.838Z,70.79
2018-09-09T10:16:33.866Z,70.31
2018-09-09T10:17:33.887Z,69.93
2018-09-09T10:18:33.913Z,69.83
2018-09-09T10:19:33.937Z,69.93
2018-09-09T10:20:33.988Z,69.45
2018-09-09T10:21:33.988Z,69.48
2018-09-09T10:22:34.013Z,69.09
2018-09-09T10:23:34.037Z,69.29
2018-09-09T10:24:34.067Z,68.80
2018-09-09T10:25:34.083Z,68.42
2018-09-09T10:26:34.110Z,68.04
2018-09-09T10:27:34.140Z,68.23
2018-09-09T10:28:34.158Z,68.07
2018-09-09T10:29:34.184Z,68.45
2018-09-09T10:30:34.209Z,68.55
2018-09-09T10:31:34.234Z,68.65
2018-09-09T10:32:34.259Z,68.42
2018-09-09T10:33:34.280Z,68.35
2018-09-09T10:34:34.308Z,68.61
2018-09-09T10:35:34.331Z,68.23
2018-09-09T10:36:34.358Z,68.80
2018-09-09T10:37:34.384Z,69.19
2018-09-09T10:38:34.410Z,67.84
2018-09-09T10:39:34.431Z,68.23
2018-09-09T10:40:34.455Z,68.23
2018-09-09T10:41:34.481Z,67.07
2018-09-09T10:42:34.506Z,67.10
2018-09-09T10:43:34.530Z,66.43
2018-09-09T10:44:34.556Z,66.62
2018-09-09T10:45:34.581Z,66.72
2018-09-09T10:46:34.634Z,66.43
2018-09-09T10:47:34.634Z,66.33
2018-09-09T10:48:34.658Z,66.33
2018-09-09T10:49:34.688Z,66.62
2018-09-09T10:50:34.704Z,66.14
2018-09-09T10:51:34.729Z,66.62
2018-09-09T10:52:34.761Z,65.69
2018-09-09T10:53:34.782Z,65.95
2018-09-09T10:54:34.837Z,65.17
2018-09-09T10:55:34.831Z,65.66
2018-09-09T10:56:34.858Z,65.37
2018-09-09T10:57:34.881Z,65.85
2018-09-09T10:58:34.906Z,66.14
2018-09-09T10:59:34.932Z,65.27
2018-09-09T11:00:34.960Z,65.37
2018-09-09T11:01:34.979Z,64.92
2018-09-09T11:02:35.005Z,64.15
2018-09-09T11:03:35.057Z,64.05
2018-09-09T11:04:35.056Z,63.37
2018-09-09T11:05:35.081Z,63.47
2018-09-09T11:06:35.104Z,64.05
2018-09-09T11:07:35.131Z,65.01
2018-09-09T11:08:35.157Z,62.99
2018-09-09T11:09:35.184Z,62.41
2018-09-09T11:10:35.204Z,61.93
2018-09-09T11:11:35.233Z,61.64
2018-09-09T11:12:35.350Z,61.64
2018-09-09T11:13:35.280Z,61.47
2018-09-09T11:14:35.306Z,61.28
2018-09-09T11:15:35.332Z,61.77
2018-09-09T11:16:35.358Z,60.51
2018-09-09T11:17:35.382Z,61.47
2018-09-09T11:18:35.405Z,60.80
2018-09-09T11:19:35.436Z,60.80
2018-09-09T11:20:35.461Z,60.71
2018-09-09T11:21:35.484Z,60.51
2018-09-09T11:22:35.506Z,60.58
2018-09-09T11:23:35.534Z,61.44
2018-09-09T11:24:35.615Z,61.64
2018-09-09T11:25:35.587Z,61.83
2018-09-09T11:26:35.612Z,61.74
2018-09-09T11:27:35.635Z,61.57
2018-09-09T11:28:35.663Z,60.89
2018-09-09T11:29:35.684Z,60.51
2018-09-09T11:30:35.713Z,60.22
2018-09-09T11:31:35.738Z,60.22
2018-09-09T11:32:35.763Z,60.51
2018-09-09T11:33:35.786Z,60.54
2018-09-09T11:34:35.816Z,59.48
2018-09-09T11:35:35.838Z,59.48
2018-09-09T11:36:35.865Z,59.28
2018-09-09T11:37:35.889Z,59.28
2018-09-09T11:38:35.917Z,59.28
2018-09-09T11:39:35.943Z,59.00
2018-09-09T11:40:36.072Z,59.38
2018-09-09T11:41:35.992Z,59.28
2018-09-09T11:42:36.021Z,58.90
2018-09-09T11:43:36.046Z,59.58
2018-09-09T11:44:36.071Z,59.67
2018-09-09T11:45:36.100Z,60.16
2018-09-09T11:46:36.122Z,60.25
2018-09-09T11:47:36.149Z,60.35
2018-09-09T11:48:36.174Z,60.16
2018-09-09T11:49:36.201Z,60.16
2018-09-09T11:50:36.228Z,60.99
2018-09-09T11:51:36.254Z,60.89
2018-09-09T11:52:36.280Z,61.86
2018-09-09T11:53:36.306Z,62.05
2018-09-09T11:54:36.330Z,62.25
2018-09-09T11:55:36.359Z,61.67
2018-09-09T11:56:36.384Z,59.74
2018-09-09T11:57:36.409Z,59.86
2018-09-09T11:58:36.433Z,59.38
2018-09-09T11:59:36.458Z,59.48
2018-09-09T12:00:36.487Z,60.13
2018-09-09T12:01:36.513Z,60.61
2018-09-09T12:02:36.537Z,60.61
2018-09-09T12:03:36.561Z,60.89
2018-09-09T12:04:36.590Z,61.74
2018-09-09T12:05:36.612Z,61.74
2018-09-09T12:06:36.642Z,62.22
2018-09-09T12:07:36.747Z,61.38
2018-09-09T12:08:36.691Z,61.67
2018-09-09T12:09:36.717Z,61.77
2018-09-09T12:10:36.743Z,61.09
2018-09-09T12:11:36.768Z,60.41
2018-09-09T12:12:36.794Z,60.41
2018-09-09T12:13:36.833Z,60.51
2018-09-09T12:14:36.841Z,60.41
2018-09-09T12:15:36.870Z,60.71
2018-09-09T12:16:36.894Z,60.22
2018-09-09T12:17:36.918Z,59.93
2018-09-09T12:18:36.945Z,60.61
2018-09-09T12:19:36.971Z,60.89
2018-09-09T12:20:36.996Z,60.44
2018-09-09T12:21:37.020Z,60.54
2018-09-09T12:22:37.044Z,60.25
2018-09-09T12:23:37.111Z,60.25
2018-09-09T12:24:37.095Z,60.35
2018-09-09T12:25:37.120Z,60.64
2018-09-09T12:26:37.148Z,60.64
2018-09-09T12:27:37.172Z,60.54
2018-09-09T12:28:37.198Z,60.35
2018-09-09T12:29:37.220Z,60.54
2018-09-09T12:30:37.349Z,60.54
2018-09-09T12:31:37.273Z,61.41
2018-09-09T12:32:37.354Z,61.99
2018-09-09T12:33:37.325Z,61.70
2018-09-09T12:34:37.349Z,60.76
2018-09-09T12:35:37.383Z,60.38
2018-09-09T12:36:37.400Z,60.28
2018-09-09T12:37:37.492Z,60.09
2018-09-09T12:38:37.449Z,60.57
2018-09-09T12:39:37.478Z,60.28
2018-09-09T12:40:37.500Z,59.89
2018-09-09T12:41:37.528Z,59.41
2018-09-09T12:42:37.554Z,59.51
2018-09-09T12:43:37.577Z,58.83
2018-09-09T12:44:37.610Z,57.87
2018-09-09T12:45:37.631Z,57.09
2018-09-09T12:46:37.655Z,57.38
2018-09-09T12:47:37.678Z,56.99
2018-09-09T12:48:37.706Z,57.45
2018-09-09T12:49:37.735Z,57.45
2018-09-09T12:50:37.758Z,57.84
2018-09-09T12:51:37.780Z,58.90
2018-09-09T12:52:37.807Z,58.70